Time;durP1;ratioP1;P1;durP2;ratioP2;P2;SDS_P1;SDS_P2;PMS_P1;PMS_P2;Temp;Humidity;BMP_temperature;BMP_pressure;BME280_temperature;BME280_humidity;BME280_pressure;Samples;Min_cycle;Max_cycle;Signal;HPM_P1;HPM_P2
2022/10/09 00:01:32;;;;;;;4.13;3.73;;;14.10;91.80;;;;;;4863903;29;20433;-71
2022/10/09 00:04:00;;;;;;;4.23;2.90;;;14.10;91.80;;;;;;4894679;29;20917;-70
2022/10/09 00:06:30;;;;;;;3.63;3.03;;;14.10;91.80;;;;;;4879606;29;20480;-71
2022/10/09 00:09:00;;;;;;;4.70;3.43;;;14.10;91.80;;;;;;4895235;29;20480;-70
2022/10/09 00:11:32;;;;;;;5.10;3.50;;;14.10;91.80;;;;;;4882470;29;20443;-71
2022/10/09 00:14:02;;;;;;;8.17;3.47;;;14.00;91.70;;;;;;4898380;29;20454;-70
2022/10/09 00:16:28;;;;;;;4.90;3.30;;;14.00;91.70;;;;;;4897592;29;20481;-71
2022/10/09 00:18:58;;;;;;;3.30;3.00;;;14.00;91.70;;;;;;4897851;29;20463;-71
2022/10/09 00:21:29;;;;;;;5.33;3.67;;;14.00;91.70;;;;;;4897768;29;20432;-71
2022/10/09 00:24:00;;;;;;;4.10;3.10;;;14.00;91.70;;;;;;4897836;29;20795;-71
2022/10/09 00:26:29;;;;;;;4.97;3.23;;;14.00;91.60;;;;;;4897188;29;20436;-71
2022/10/09 00:28:56;;;;;;;4.37;3.20;;;14.00;91.70;;;;;;4897512;29;20425;-71
2022/10/09 00:31:29;;;;;;;4.90;3.00;;;14.00;91.60;;;;;;4897433;29;20432;-70
2022/10/09 00:33:57;;;;;;;5.53;3.43;;;14.00;91.60;;;;;;4897578;29;20424;-70
2022/10/09 00:36:24;;;;;;;5.30;3.50;;;13.90;91.60;;;;;;4897133;29;20465;-71
2022/10/09 00:39:03;;;;;;;4.20;3.30;;;13.90;91.60;;;;;;4896983;29;20468;-71
2022/10/09 00:41:35;;;;;;;6.03;3.23;;;13.90;91.60;;;;;;4880958;29;20438;-70
2022/10/09 00:44:22;;;;;;;5.97;3.50;;;13.90;91.60;;;;;;4881307;29;20499;-71
2022/10/09 00:46:50;;;;;;;4.80;3.20;;;13.90;91.60;;;;;;4907902;29;20959;-71
2022/10/09 00:49:33;;;;;;;5.43;3.40;;;13.90;91.60;;;;;;4887740;29;20825;-70
2022/10/09 00:52:05;;;;;;;4.43;3.27;;;13.80;91.50;;;;;;4875158;29;20470;-71
2022/10/09 00:54:36;;;;;;;6.73;3.93;;;13.80;91.50;;;;;;4881856;29;20428;-71
2022/10/09 00:57:04;;;;;;;5.50;3.80;;;13.80;91.50;;;;;;4898301;29;20486;-71
2022/10/09 00:59:31;;;;;;;4.23;3.13;;;13.80;91.50;;;;;;4896601;29;20423;-71
2022/10/09 01:02:02;;;;;;;4.87;3.77;;;13.80;91.50;;;;;;4912812;29;20942;-70
2022/10/09 01:04:30;;;;;;;4.63;3.40;;;13.80;91.50;;;;;;4878772;29;20464;-71
2022/10/09 01:07:22;;;;;;;5.50;3.63;;;13.80;91.50;;;;;;4904895;29;20461;-70
2022/10/09 01:09:58;;;;;;;6.53;3.37;;;13.80;91.50;;;;;;4890585;29;20796;-70
2022/10/09 01:12:55;;;;;;;4.30;3.27;;;13.80;91.50;;;;;;4896801;29;20431;-70
2022/10/09 01:15:50;;;;;;;5.20;3.80;;;13.70;91.50;;;;;;4896813;29;20527;-70
2022/10/09 01:18:37;;;;;;;3.83;3.17;;;13.70;91.40;;;;;;4878107;29;20443;-70
2022/10/09 01:21:15;;;;;;;4.20;2.80;;;13.70;91.40;;;;;;4893467;29;21016;-70
2022/10/09 01:23:56;;;;;;;4.23;2.93;;;13.70;91.40;;;;;;4879340;29;20427;-70
2022/10/09 01:26:36;;;;;;;3.60;3.13;;;13.70;91.50;;;;;;4878397;29;20820;-70
2022/10/09 01:29:07;;;;;;;5.43;3.67;;;13.70;91.50;;;;;;4878041;29;20410;-70
2022/10/09 01:31:42;;;;;;;3.50;2.63;;;13.70;91.40;;;;;;4878601;29;20439;-70
2022/10/09 01:34:10;;;;;;;4.13;3.60;;;13.70;91.40;;;;;;4896558;29;20810;-70
2022/10/09 01:36:41;;;;;;;3.90;3.20;;;13.60;91.40;;;;;;4937725;23;20547;-70
2022/10/09 01:39:10;;;;;;;4.57;3.37;;;13.60;91.40;;;;;;4954698;28;20441;-69
2022/10/09 01:41:37;;;;;;;4.80;3.10;;;13.60;91.40;;;;;;4937751;29;20484;-70
2022/10/09 01:44:18;;;;;;;4.20;3.40;;;13.60;91.40;;;;;;4922099;29;21076;-70
2022/10/09 01:46:44;;;;;;;4.43;3.00;;;13.60;91.30;;;;;;4954606;28;20859;-70
2022/10/09 01:49:23;;;;;;;3.77;2.90;;;13.60;91.30;;;;;;4934261;29;20500;-70
2022/10/09 01:51:52;;;;;;;6.60;3.17;;;13.60;91.30;;;;;;4937471;29;20436;-73
2022/10/09 01:54:40;;;;;;;6.30;3.43;;;13.60;91.30;;;;;;4945607;29;20995;-74
2022/10/09 01:57:09;;;;;;;4.73;2.93;;;13.60;91.30;;;;;;4952213;29;20468;-74
2022/10/09 01:59:40;;;;;;;5.37;3.57;;;13.50;91.20;;;;;;4918117;29;21131;-74
2022/10/09 02:02:07;;;;;;;7.90;3.53;;;13.50;91.20;;;;;;4933775;29;20432;-74
2022/10/09 02:04:37;;;;;;;4.20;3.10;;;13.50;91.20;;;;;;4952626;28;20439;-74
2022/10/09 02:07:05;;;;;;;5.73;3.60;;;13.50;91.20;;;;;;4950085;28;20450;-74
2022/10/09 02:09:32;;;;;;;4.67;3.87;;;13.50;91.50;;;;;;4933557;29;20422;-74
2022/10/09 02:12:06;;;;;;;5.43;3.33;;;13.50;91.20;;;;;;4937337;29;20473;-74
2022/10/09 02:14:34;;;;;;;3.70;2.63;;;13.50;91.20;;;;;;4936542;29;21117;-74
2022/10/09 02:17:16;;;;;;;5.50;3.10;;;13.50;91.20;;;;;;4952884;28;21053;-74
2022/10/09 02:19:47;;;;;;;5.70;2.97;;;13.40;91.10;;;;;;4936583;29;20440;-74
2022/10/09 02:22:20;;;;;;;3.93;2.63;;;13.40;91.10;;;;;;4944200;28;21050;-74
2022/10/09 02:24:48;;;;;;;4.40;2.87;;;13.40;91.00;;;;;;4917320;29;20458;-74
2022/10/09 02:27:17;;;;;;;3.80;2.70;;;13.40;91.10;;;;;;4946231;29;20537;-73
2022/10/09 02:29:47;;;;;;;4.40;2.47;;;13.40;91.00;;;;;;4953424;28;20470;-74
2022/10/09 02:32:13;;;;;;;4.20;3.37;;;13.40;91.00;;;;;;4924461;29;20425;-74
2022/10/09 02:34:39;;;;;;;6.77;3.10;;;13.40;91.00;;;;;;4952393;28;20439;-74
2022/10/09 02:37:08;;;;;;;3.20;2.67;;;13.40;91.00;;;;;;4938411;28;20483;-74
2022/10/09 02:39:34;;;;;;;4.57;2.90;;;13.30;90.90;;;;;;4936637;29;20923;-74
2022/10/09 02:42:01;;;;;;;5.17;3.20;;;13.40;91.00;;;;;;4938758;29;20431;-74
2022/10/09 02:44:26;;;;;;;4.03;2.47;;;13.30;90.90;;;;;;4954200;28;20433;-74
2022/10/09 02:46:57;;;;;;;5.80;3.80;;;13.30;90.90;;;;;;4955757;28;20519;-74
2022/10/09 02:49:24;;;;;;;4.50;2.70;;;13.30;90.90;;;;;;4949283;28;20449;-74
2022/10/09 02:51:54;;;;;;;4.40;2.87;;;13.30;90.90;;;;;;4936816;29;20423;-74
2022/10/09 02:54:22;;;;;;;4.97;3.20;;;13.30;90.90;;;;;;4936257;29;20408;-74
2022/10/09 02:56:48;;;;;;;4.10;2.90;;;13.30;90.90;;;;;;4946475;29;20526;-74
2022/10/09 02:59:14;;;;;;;3.43;2.87;;;13.30;90.90;;;;;;4923660;29;20914;-74
2022/10/09 03:01:40;;;;;;;3.50;3.03;;;13.20;90.80;;;;;;4937746;29;20819;-74
2022/10/09 03:04:09;;;;;;;5.70;3.40;;;13.20;90.80;;;;;;4936854;29;20424;-74
2022/10/09 03:06:35;;;;;;;6.53;3.23;;;13.20;90.80;;;;;;4937543;29;20456;-74
2022/10/09 03:09:06;;;;;;;4.23;2.60;;;13.20;90.80;;;;;;4930234;29;20461;-74
2022/10/09 03:11:34;;;;;;;4.03;3.20;;;13.20;90.80;;;;;;4914682;29;20422;-74
2022/10/09 03:14:02;;;;;;;4.70;3.07;;;13.20;90.80;;;;;;4933790;29;20821;-74
2022/10/09 03:16:30;;;;;;;2.57;2.27;;;13.20;90.80;;;;;;4945360;29;20462;-74
2022/10/09 03:19:01;;;;;;;4.60;3.23;;;13.20;90.80;;;;;;4951190;28;20523;-74
2022/10/09 03:21:27;;;;;;;2.93;2.63;;;13.20;90.80;;;;;;4936461;29;20984;-74
2022/10/09 03:23:56;;;;;;;3.83;2.77;;;13.10;90.70;;;;;;4934933;29;20439;-74
2022/10/09 03:26:28;;;;;;;3.50;3.13;;;13.10;90.70;;;;;;4955441;28;20543;-74
2022/10/09 03:28:56;;;;;;;3.87;2.70;;;13.10;90.70;;;;;;4917770;29;20966;-74
2022/10/09 03:31:25;;;;;;;5.17;3.03;;;13.10;90.70;;;;;;4935988;29;20420;-74
2022/10/09 03:33:55;;;;;;;3.10;2.60;;;13.10;90.70;;;;;;4952455;29;20792;-74
2022/10/09 03:36:26;;;;;;;4.17;2.53;;;13.10;90.70;;;;;;4954517;29;20477;-74
2022/10/09 03:38:52;;;;;;;4.53;3.00;;;13.10;90.70;;;;;;4940527;28;20479;-74
2022/10/09 03:41:21;;;;;;;3.70;2.40;;;13.10;90.70;;;;;;4944258;29;20426;-74
2022/10/09 03:43:51;;;;;;;3.97;3.00;;;13.10;90.70;;;;;;4943047;29;20345;-74
2022/10/09 03:46:20;;;;;;;3.50;2.80;;;13.00;90.60;;;;;;4954956;28;20448;-74
2022/10/09 03:48:48;;;;;;;4.97;3.03;;;13.00;90.60;;;;;;4953350;28;20445;-74
2022/10/09 03:51:24;;;;;;;2.63;2.43;;;13.00;90.60;;;;;;4954335;28;20794;-74
2022/10/09 03:53:53;;;;;;;3.40;2.27;;;13.00;90.60;;;;;;4939111;28;20532;-74
2022/10/09 03:56:20;;;;;;;4.80;2.90;;;13.00;90.60;;;;;;4953460;29;20471;-74
2022/10/09 03:58:46;;;;;;;6.63;2.80;;;13.00;90.60;;;;;;4938412;29;20425;-74
2022/10/09 04:01:14;;;;;;;3.87;2.53;;;13.00;90.60;;;;;;4920985;29;20885;-74
2022/10/09 04:03:40;;;;;;;3.43;2.40;;;13.00;90.50;;;;;;4927981;29;20455;-74
2022/10/09 04:06:11;;;;;;;4.10;2.90;;;12.90;90.50;;;;;;4938800;29;20463;-74
2022/10/09 04:08:37;;;;;;;4.50;2.50;;;12.90;90.50;;;;;;4942050;28;20440;-74
2022/10/09 04:11:05;;;;;;;5.23;2.53;;;12.90;90.50;;;;;;4944486;29;20850;-74
2022/10/09 04:13:33;;;;;;;3.90;2.50;;;12.90;90.50;;;;;;4947093;29;20427;-74
2022/10/09 04:16:02;;;;;;;7.00;4.03;;;12.90;90.50;;;;;;4932443;29;20501;-74
2022/10/09 04:18:30;;;;;;;3.03;2.27;;;12.90;90.50;;;;;;4918710;29;20467;-74
2022/10/09 04:20:58;;;;;;;3.93;2.87;;;12.90;90.50;;;;;;4935150;29;20419;-74
2022/10/09 04:23:25;;;;;;;5.57;3.27;;;12.90;90.50;;;;;;4930063;29;20436;-74
2022/10/09 04:25:53;;;;;;;3.30;2.73;;;12.90;90.50;;;;;;4940777;29;20191;-74
2022/10/09 04:28:20;;;;;;;3.67;3.00;;;12.80;90.50;;;;;;4918789;29;20473;-74
2022/10/09 04:30:46;;;;;;;6.00;2.47;;;12.80;90.50;;;;;;4943967;29;20515;-74
2022/10/09 04:33:11;;;;;;;6.73;2.77;;;12.80;90.50;;;;;;4944800;29;20495;-74
2022/10/09 04:35:41;;;;;;;2.77;2.53;;;12.80;90.40;;;;;;4923938;29;20477;-74
2022/10/09 04:38:07;;;;;;;3.30;2.90;;;12.80;90.40;;;;;;4942788;29;20240;-74
2022/10/09 04:40:33;;;;;;;3.60;2.77;;;12.80;90.40;;;;;;4908557;29;20509;-74
2022/10/09 04:43:01;;;;;;;3.50;2.90;;;12.80;90.40;;;;;;4922566;29;20452;-74
2022/10/09 04:45:27;;;;;;;5.60;2.80;;;12.70;90.30;;;;;;4945918;29;20459;-74
2022/10/09 04:47:55;;;;;;;3.53;2.90;;;12.70;90.30;;;;;;4921049;29;20452;-74
2022/10/09 04:50:25;;;;;;;3.87;3.10;;;12.70;90.30;;;;;;4935540;29;20801;-74
2022/10/09 04:52:59;;;;;;;5.50;2.60;;;12.70;90.40;;;;;;4923033;29;20436;-74
2022/10/09 04:55:27;;;;;;;3.37;2.93;;;12.70;90.30;;;;;;4953999;28;20463;-74
2022/10/09 04:57:57;;;;;;;6.33;2.80;;;12.70;90.40;;;;;;4954029;28;20897;-74
2022/10/09 05:00:23;;;;;;;3.30;2.40;;;12.70;90.40;;;;;;4937290;28;20423;-74
2022/10/09 05:02:49;;;;;;;3.13;2.73;;;12.60;90.30;;;;;;4941803;28;20434;-74
2022/10/09 05:05:15;;;;;;;4.47;2.90;;;12.60;90.30;;;;;;4934136;29;20501;-74
2022/10/09 05:07:41;;;;;;;6.03;2.57;;;12.60;90.30;;;;;;4943923;29;20679;-73
2022/10/09 05:10:07;;;;;;;5.60;2.83;;;12.60;90.30;;;;;;4937026;29;20651;-74
2022/10/09 05:12:36;;;;;;;4.13;2.67;;;12.60;90.30;;;;;;4921045;29;20242;-74
2022/10/09 05:15:05;;;;;;;2.70;2.40;;;12.60;90.40;;;;;;4945976;29;20436;-74
2022/10/09 05:17:33;;;;;;;2.90;2.43;;;12.60;90.40;;;;;;4927964;29;20454;-74
2022/10/09 05:20:08;;;;;;;3.67;2.90;;;12.60;90.30;;;;;;4922464;29;20486;-74
2022/10/09 05:22:37;;;;;;;3.87;2.83;;;12.60;90.30;;;;;;4943088;29;20427;-74
2022/10/09 05:25:06;;;;;;;3.60;2.63;;;12.60;90.40;;;;;;4943057;29;20449;-74
2022/10/09 05:27:34;;;;;;;4.07;2.90;;;12.60;90.40;;;;;;4933723;29;20446;-74
2022/10/09 05:30:04;;;;;;;3.13;2.40;;;12.50;90.30;;;;;;4933298;29;20450;-74
2022/10/09 05:32:33;;;;;;;3.70;2.50;;;12.50;90.40;;;;;;4935975;29;20422;-74
2022/10/09 05:35:04;;;;;;;3.33;3.03;;;12.50;90.30;;;;;;4951729;29;20440;-74
2022/10/09 05:37:32;;;;;;;3.00;2.60;;;12.50;90.40;;;;;;4951278;28;20458;-74
2022/10/09 05:39:58;;;;;;;4.63;3.10;;;12.50;90.40;;;;;;4950606;29;20499;-74
2022/10/09 05:42:27;;;;;;;7.60;3.03;;;12.50;90.40;;;;;;4936290;29;20423;-74
2022/10/09 05:44:55;;;;;;;5.10;3.10;;;12.50;90.40;;;;;;4946870;28;20665;-74
2022/10/09 05:47:23;;;;;;;3.83;3.30;;;12.50;90.40;;;;;;4952726;29;20453;-74
2022/10/09 05:49:51;;;;;;;5.50;3.17;;;12.40;90.40;;;;;;4941368;28;20425;-74
2022/10/09 05:52:21;;;;;;;5.17;3.17;;;12.40;90.40;;;;;;4921205;29;21327;-74
2022/10/09 05:54:50;;;;;;;4.73;2.83;;;12.40;90.40;;;;;;4926502;29;20424;-74
2022/10/09 05:57:16;;;;;;;4.23;2.90;;;12.40;90.30;;;;;;4952166;28;20474;-74
2022/10/09 05:59:42;;;;;;;5.20;2.87;;;12.40;90.40;;;;;;4922254;29;20430;-74
2022/10/09 06:02:10;;;;;;;4.50;3.17;;;12.40;90.30;;;;;;4952761;28;20521;-74
2022/10/09 06:04:36;;;;;;;3.67;3.00;;;12.40;90.30;;;;;;4950757;29;20498;-74
2022/10/09 06:07:02;;;;;;;4.07;2.80;;;12.40;90.30;;;;;;4938870;29;20979;-74
2022/10/09 06:09:31;;;;;;;5.77;3.13;;;12.40;90.30;;;;;;4947546;29;20433;-74
2022/10/09 06:11:59;;;;;;;4.93;3.07;;;12.30;90.30;;;;;;4952530;28;20400;-74
2022/10/09 06:14:28;;;;;;;7.20;3.13;;;12.40;90.40;;;;;;4925654;29;20957;-74
2022/10/09 06:17:00;;;;;;;5.30;2.93;;;12.30;90.30;;;;;;4926052;29;20473;-74
2022/10/09 06:19:30;;;;;;;5.30;3.23;;;12.30;90.30;;;;;;4952882;28;20422;-74
2022/10/09 06:21:56;;;;;;;4.10;3.40;;;12.30;90.40;;;;;;4921129;29;20433;-74
2022/10/09 06:24:24;;;;;;;5.27;3.50;;;12.30;90.40;;;;;;4935870;29;20461;-74
2022/10/09 06:26:53;;;;;;;3.73;3.00;;;12.30;90.40;;;;;;4924206;29;20500;-74
2022/10/09 06:29:24;;;;;;;5.90;3.40;;;12.30;90.40;;;;;;4955658;29;20777;-74
2022/10/09 06:31:50;;;;;;;6.27;3.13;;;12.30;90.40;;;;;;4936042;29;20461;-74
2022/10/09 06:34:18;;;;;;;5.17;3.30;;;12.30;90.40;;;;;;4952428;29;20452;-74
2022/10/09 06:36:44;;;;;;;5.13;3.47;;;12.30;90.40;;;;;;4945213;29;20477;-74
2022/10/09 06:39:10;;;;;;;5.10;3.20;;;12.30;90.40;;;;;;4956227;28;20537;-74
2022/10/09 06:41:41;;;;;;;5.73;3.10;;;12.30;90.50;;;;;;4945667;28;20492;-76
2022/10/09 06:44:22;;;;;;;5.07;3.20;;;12.20;90.40;;;;;;4924013;29;20412;-76
2022/10/09 06:46:53;;;;;;;5.57;3.50;;;12.20;90.50;;;;;;4957863;29;20445;-76
2022/10/09 06:49:19;;;;;;;6.30;4.03;;;12.30;90.50;;;;;;4956776;28;20781;-76
2022/10/09 06:51:45;;;;;;;5.10;3.87;;;12.20;90.50;;;;;;4956868;29;20415;-77
2022/10/09 06:54:16;;;;;;;6.47;3.67;;;12.20;90.50;;;;;;4956902;29;20486;-75
2022/10/09 06:56:43;;;;;;;7.27;4.30;;;12.20;90.50;;;;;;4940225;29;20488;-75
2022/10/09 06:59:12;;;;;;;4.80;3.87;;;12.20;90.50;;;;;;4955126;29;20449;-75
2022/10/09 07:01:38;;;;;;;5.63;3.60;;;12.20;90.60;;;;;;4954713;28;20457;-75
2022/10/09 07:04:13;;;;;;;6.13;4.23;;;12.20;90.60;;;;;;4955712;28;20425;-76
2022/10/09 07:06:48;;;;;;;4.27;3.83;;;12.20;90.60;;;;;;4954075;29;20865;-75
2022/10/09 07:09:24;;;;;;;6.40;3.80;;;12.20;90.70;;;;;;4953385;29;20426;-75
2022/10/09 07:11:50;;;;;;;6.13;4.10;;;12.20;90.70;;;;;;4940033;29;20447;-75
2022/10/09 07:14:19;;;;;;;5.37;3.90;;;12.20;90.70;;;;;;4956147;29;20405;-75
2022/10/09 07:16:50;;;;;;;6.37;4.13;;;12.20;90.80;;;;;;4938596;29;20506;-74
2022/10/09 07:19:18;;;;;;;5.60;3.50;;;12.20;90.90;;;;;;4935529;29;20440;-73
2022/10/09 07:21:46;;;;;;;4.33;3.30;;;12.20;90.90;;;;;;4936551;29;20402;-75
2022/10/09 07:24:13;;;;;;;4.03;3.50;;;12.20;90.90;;;;;;4952923;28;20410;-75
2022/10/09 07:26:41;;;;;;;5.53;3.63;;;12.20;90.90;;;;;;4952479;28;20458;-74
2022/10/09 07:29:28;;;;;;;4.47;3.33;;;12.20;90.90;;;;;;4953522;29;20493;-73
2022/10/09 07:31:54;;;;;;;5.23;3.07;;;12.20;91.00;;;;;;4954300;28;20433;-75
2022/10/09 07:34:20;;;;;;;3.10;2.80;;;12.20;91.00;;;;;;4939347;29;20407;-75
2022/10/09 07:36:45;;;;;;;3.60;2.67;;;12.20;91.10;;;;;;4954856;29;20949;-75
2022/10/09 07:39:15;;;;;;;5.47;3.70;;;12.20;91.10;;;;;;4954915;29;20508;-73
2022/10/09 07:41:42;;;;;;;4.13;3.50;;;12.20;91.20;;;;;;4954182;28;20921;-75
2022/10/09 07:44:28;;;;;;;5.00;3.23;;;12.20;91.20;;;;;;4954902;28;20440;-75
2022/10/09 07:46:54;;;;;;;5.40;3.60;;;12.20;91.20;;;;;;4938106;29;20457;-74
2022/10/09 07:49:20;;;;;;;5.37;3.27;;;12.20;91.30;;;;;;4955881;28;20772;-74
2022/10/09 07:51:49;;;;;;;6.03;3.80;;;12.20;91.30;;;;;;4955043;29;20770;-75
2022/10/09 07:54:17;;;;;;;4.33;2.93;;;12.20;91.40;;;;;;4939523;29;20505;-75
2022/10/09 07:56:43;;;;;;;4.90;2.70;;;12.20;91.40;;;;;;4955831;28;20479;-75
2022/10/09 07:59:12;;;;;;;3.70;2.63;;;12.20;91.40;;;;;;4955514;28;20409;-75
2022/10/09 08:02:01;;;;;;;7.23;2.70;;;12.20;91.40;;;;;;4954234;28;20190;-75
2022/10/09 08:04:27;;;;;;;3.93;2.60;;;12.20;91.50;;;;;;4953557;29;20407;-75
2022/10/09 08:06:57;;;;;;;4.83;2.90;;;12.20;91.50;;;;;;4937568;29;20456;-74
2022/10/09 08:09:23;;;;;;;5.40;2.87;;;12.20;91.60;;;;;;4938657;29;20519;-74
2022/10/09 08:11:48;;;;;;;5.00;2.90;;;12.20;91.60;;;;;;4938498;29;20825;-75
2022/10/09 08:14:17;;;;;;;4.47;3.03;;;12.20;91.60;;;;;;4922905;29;20459;-74
2022/10/09 08:16:48;;;;;;;5.37;3.03;;;12.20;91.60;;;;;;4938527;29;20505;-75
2022/10/09 08:19:17;;;;;;;4.70;2.70;;;12.20;91.70;;;;;;4953438;28;20449;-75
2022/10/09 08:21:48;;;;;;;4.20;3.10;;;12.20;91.70;;;;;;4953624;29;20516;-72
2022/10/09 08:24:14;;;;;;;4.07;2.87;;;12.20;91.70;;;;;;4953147;29;20431;-73
2022/10/09 08:26:41;;;;;;;6.30;2.90;;;12.30;91.80;;;;;;4954063;28;21010;-72
2022/10/09 08:29:14;;;;;;;3.13;2.50;;;12.30;91.80;;;;;;4954387;28;20434;-72
2022/10/09 08:31:40;;;;;;;3.07;2.67;;;12.30;91.80;;;;;;4937239;29;20441;-72
2022/10/09 08:34:09;;;;;;;4.10;2.93;;;12.30;91.80;;;;;;4936753;29;20427;-73
2022/10/09 08:36:35;;;;;;;4.07;2.20;;;12.30;91.90;;;;;;4954255;28;21024;-73
2022/10/09 08:39:03;;;;;;;4.07;2.70;;;12.30;92.00;;;;;;4953308;29;20409;-73
2022/10/09 08:41:41;;;;;;;3.63;2.43;;;12.40;92.10;;;;;;4953656;28;20434;-73
2022/10/09 08:44:19;;;;;;;3.63;2.27;;;12.40;92.00;;;;;;4953174;29;20450;-73
2022/10/09 08:46:54;;;;;;;3.93;2.60;;;12.40;92.10;;;;;;4952724;29;20966;-74
2022/10/09 08:49:47;;;;;;;6.90;2.60;;;12.40;92.20;;;;;;4953194;28;20524;-74
2022/10/09 08:52:43;;;;;;;7.53;2.50;;;12.50;92.30;;;;;;4955186;28;20492;-74
2022/10/09 08:55:21;;;;;;;4.07;2.47;;;12.50;92.40;;;;;;4953633;29;20505;-74
2022/10/09 08:57:50;;;;;;;4.47;2.50;;;12.50;92.60;;;;;;4953598;29;20442;-74
2022/10/09 09:00:34;;;;;;;4.80;3.00;;;12.50;92.70;;;;;;4952346;29;21050;-74
2022/10/09 09:03:15;;;;;;;4.00;2.10;;;12.50;92.90;;;;;;4952898;29;20768;-74
2022/10/09 09:06:25;;;;;;;5.40;2.13;;;12.60;92.50;;;;;;4932001;29;20463;-74
2022/10/09 09:08:53;;;;;;;4.63;2.40;;;12.60;92.40;;;;;;4917105;29;20823;-74
2022/10/09 09:11:42;;;;;;;3.83;2.47;;;12.60;92.40;;;;;;4902061;29;20496;-74
2022/10/09 09:14:21;;;;;;;2.70;1.93;;;12.60;92.40;;;;;;4917631;29;20995;-74
2022/10/09 09:16:51;;;;;;;8.57;2.30;;;12.60;92.40;;;;;;4933281;29;20484;-74
2022/10/09 09:19:38;;;;;;;5.80;2.17;;;12.70;92.40;;;;;;4899336;29;20555;-74
2022/10/09 09:22:15;;;;;;;3.83;1.97;;;12.70;92.40;;;;;;4916268;29;20824;-74
2022/10/09 09:24:56;;;;;;;4.40;2.90;;;12.80;92.50;;;;;;4915770;29;20483;-74
2022/10/09 09:27:33;;;;;;;3.30;2.00;;;12.80;92.50;;;;;;4900475;29;20442;-74
2022/10/09 09:30:08;;;;;;;3.00;2.03;;;12.80;92.40;;;;;;4916994;29;20425;-75
2022/10/09 09:32:38;;;;;;;3.73;2.30;;;12.90;92.50;;;;;;4916205;29;20903;-73
2022/10/09 09:35:36;;;;;;;3.53;2.43;;;12.90;92.50;;;;;;4896955;29;20418;-72
2022/10/09 09:38:02;;;;;;;3.60;2.40;;;12.90;92.50;;;;;;4949480;29;20464;-73
2022/10/09 09:40:33;;;;;;;5.43;2.60;;;13.00;92.60;;;;;;4952763;28;20946;-75
2022/10/09 09:43:00;;;;;;;1.50;1.37;;;12.90;92.50;;;;;;4950485;28;20805;-73
2022/10/09 09:45:29;;;;;;;3.50;2.00;;;13.00;92.50;;;;;;4934025;29;20466;-71
2022/10/09 09:48:12;;;;;;;5.40;2.20;;;13.00;92.50;;;;;;4952439;28;21075;-74
2022/10/09 09:50:43;;;;;;;2.73;1.90;;;13.00;92.50;;;;;;4953354;28;20474;-72
2022/10/09 09:53:25;;;;;;;4.53;1.80;;;13.10;92.60;;;;;;4945593;28;20454;-75
2022/10/09 09:56:01;;;;;;;3.90;1.80;;;13.10;92.60;;;;;;4949811;29;20499;-75
2022/10/09 09:58:35;;;;;;;3.70;1.63;;;13.10;92.60;;;;;;4935399;29;20968;-76
2022/10/09 10:01:05;;;;;;;3.20;2.10;;;13.10;92.60;;;;;;4921838;29;20591;-76
2022/10/09 10:03:34;;;;;;;4.77;1.63;;;13.20;92.60;;;;;;4949103;29;20759;-76
2022/10/09 10:06:03;;;;;;;3.37;2.03;;;13.20;92.70;;;;;;4953171;29;20538;-75
2022/10/09 10:08:35;;;;;;;3.27;2.30;;;13.20;92.60;;;;;;4939036;29;20926;-76
2022/10/09 10:11:17;;;;;;;2.90;1.80;;;13.20;92.60;;;;;;4953776;29;20431;-76
2022/10/09 10:13:50;;;;;;;3.90;2.30;;;13.30;92.60;;;;;;4943803;29;20504;-76
2022/10/09 10:16:23;;;;;;;2.10;1.90;;;13.30;92.60;;;;;;4937289;29;20559;-75
2022/10/09 10:18:55;;;;;;;7.17;2.33;;;13.30;92.60;;;;;;4921606;29;20446;-76
2022/10/09 10:21:24;;;;;;;2.90;2.03;;;13.40;92.60;;;;;;4937891;29;20428;-75
2022/10/09 10:23:50;;;;;;;2.73;1.93;;;13.40;92.70;;;;;;4953757;28;20957;-75
2022/10/09 10:26:33;;;;;;;6.33;2.10;;;13.30;92.60;;;;;;4956368;29;20447;-72
2022/10/09 10:29:11;;;;;;;4.33;2.00;;;13.40;92.70;;;;;;4956981;28;20435;-71
2022/10/09 10:31:58;;;;;;;4.40;1.60;;;13.40;92.60;;;;;;4956316;29;20902;-75
2022/10/09 10:34:37;;;;;;;2.33;1.70;;;13.40;92.60;;;;;;4939966;29;20513;-75
2022/10/09 10:37:14;;;;;;;4.43;1.83;;;13.50;92.60;;;;;;4955851;28;20502;-76
2022/10/09 10:39:58;;;;;;;6.17;2.00;;;13.50;92.60;;;;;;4957014;28;20400;-76
2022/10/09 10:42:35;;;;;;;3.97;1.70;;;13.60;92.60;;;;;;4935562;29;21087;-76
2022/10/09 10:45:19;;;;;;;4.53;2.20;;;13.60;92.50;;;;;;4937811;29;20427;-76
2022/10/09 10:47:53;;;;;;;6.07;2.27;;;13.60;92.50;;;;;;4921442;29;20442;-75
2022/10/09 10:50:38;;;;;;;2.70;1.80;;;13.60;92.50;;;;;;4938201;29;20403;-75
2022/10/09 10:53:31;;;;;;;2.37;1.63;;;13.70;92.50;;;;;;4937127;29;20783;-76
2022/10/09 10:56:17;;;;;;;4.03;1.77;;;13.70;92.50;;;;;;4955000;29;20872;-74
2022/10/09 10:58:52;;;;;;;4.90;1.80;;;13.70;92.50;;;;;;4946847;29;20836;-75
2022/10/09 11:01:45;;;;;;;2.83;2.17;;;13.70;92.40;;;;;;4941448;29;20428;-76
2022/10/09 11:04:22;;;;;;;3.73;1.97;;;13.80;92.40;;;;;;4936534;29;20414;-75
2022/10/09 11:07:28;;;;;;;6.03;2.10;;;13.80;92.40;;;;;;4953351;28;20467;-75
2022/10/09 11:10:01;;;;;;;4.37;1.80;;;13.80;92.40;;;;;;4934646;29;20786;-74
2022/10/09 11:12:48;;;;;;;2.40;2.10;;;13.90;92.40;;;;;;4951088;28;20429;-74
2022/10/09 11:15:25;;;;;;;1.60;1.43;;;13.90;92.40;;;;;;4938082;29;20421;-75
2022/10/09 11:18:14;;;;;;;5.73;2.20;;;13.90;92.40;;;;;;4942541;28;20477;-75
2022/10/09 11:21:01;;;;;;;3.80;1.90;;;13.90;92.30;;;;;;4931127;29;20477;-74
2022/10/09 11:23:46;;;;;;;2.67;1.60;;;14.00;92.30;;;;;;4947517;29;20541;-75
2022/10/09 11:26:31;;;;;;;3.20;1.77;;;14.00;92.30;;;;;;4940292;29;20469;-75
2022/10/09 11:29:01;;;;;;;5.47;2.20;;;14.00;92.30;;;;;;4943506;29;21052;-74
2022/10/09 11:31:33;;;;;;;3.10;2.17;;;14.00;92.20;;;;;;4936841;29;20781;-75
2022/10/09 11:34:16;;;;;;;7.67;2.40;;;14.00;92.10;;;;;;4936907;29;20513;-75
2022/10/09 11:37:18;;;;;;;2.87;1.80;;;14.10;92.20;;;;;;4909902;29;20523;-75
2022/10/09 11:39:44;;;;;;;3.90;1.60;;;14.10;92.10;;;;;;4936557;29;20430;-75
2022/10/09 11:42:21;;;;;;;2.73;1.73;;;14.10;92.10;;;;;;4936373;29;20415;-75
2022/10/09 11:45:02;;;;;;;3.10;1.77;;;14.10;92.10;;;;;;4937412;29;20438;-75
2022/10/09 11:47:48;;;;;;;4.83;2.00;;;14.10;92.00;;;;;;4936359;29;20458;-75
2022/10/09 11:50:17;;;;;;;2.30;1.60;;;14.20;92.00;;;;;;4936496;29;20929;-75
2022/10/09 11:52:49;;;;;;;3.27;1.73;;;14.20;92.00;;;;;;4920962;29;20448;-75
2022/10/09 11:55:23;;;;;;;4.50;1.73;;;14.20;92.00;;;;;;4936525;29;20546;-75
2022/10/09 11:58:26;;;;;;;6.10;2.30;;;14.20;92.00;;;;;;4936516;29;20453;-75
2022/10/09 12:01:08;;;;;;;3.63;1.70;;;14.30;92.10;;;;;;4936291;29;20453;-75
2022/10/09 12:03:39;;;;;;;2.43;1.93;;;14.30;92.10;;;;;;4904841;29;20431;-75
2022/10/09 12:06:08;;;;;;;2.67;1.80;;;14.30;92.00;;;;;;4920466;29;20847;-75
2022/10/09 12:08:35;;;;;;;2.70;1.80;;;14.30;91.90;;;;;;4920535;29;20464;-75
2022/10/09 12:11:17;;;;;;;3.33;2.20;;;14.30;91.90;;;;;;4936738;29;20818;-75
2022/10/09 12:13:48;;;;;;;2.47;1.37;;;14.40;91.90;;;;;;4948013;29;20503;-76
2022/10/09 12:16:38;;;;;;;4.00;1.73;;;14.40;91.90;;;;;;4922224;29;20502;-74
2022/10/09 12:19:35;;;;;;;3.50;1.60;;;14.40;91.80;;;;;;4934567;29;20584;-73
2022/10/09 12:22:22;;;;;;;5.13;1.70;;;14.40;91.80;;;;;;4936393;29;20505;-74
2022/10/09 12:25:37;;;;;;;5.03;1.80;;;14.50;91.90;;;;;;4934364;29;20985;-73
2022/10/09 12:28:04;;;;;;;3.30;1.60;;;14.50;91.90;;;;;;4935611;29;20466;-73
2022/10/09 12:30:38;;;;;;;4.17;1.80;;;14.60;91.90;;;;;;4934299;29;20510;-74
2022/10/09 12:33:40;;;;;;;7.23;1.80;;;14.60;91.80;;;;;;4934858;29;20431;-73
2022/10/09 12:36:27;;;;;;;10.13;1.87;;;14.60;91.70;;;;;;4934881;29;20478;-73
2022/10/09 12:38:53;;;;;;;3.30;1.53;;;14.60;91.60;;;;;;4935699;29;20419;-73
2022/10/09 12:41:22;;;;;;;3.00;1.83;;;14.60;91.60;;;;;;4919919;29;20812;-73
2022/10/09 12:43:51;;;;;;;3.23;1.90;;;14.60;91.50;;;;;;4935645;29;20442;-73
2022/10/09 12:46:30;;;;;;;3.30;1.60;;;14.70;91.50;;;;;;4936624;29;20444;-73
2022/10/09 12:48:58;;;;;;;2.30;1.67;;;14.70;91.50;;;;;;4935521;29;20460;-73
2022/10/09 12:51:25;;;;;;;4.73;2.20;;;14.70;91.40;;;;;;4935627;29;20443;-73
2022/10/09 12:53:53;;;;;;;3.27;1.83;;;14.70;91.30;;;;;;4935512;29;20412;-73
2022/10/09 12:56:31;;;;;;;3.97;2.10;;;14.70;91.30;;;;;;4936523;29;20470;-73
2022/10/09 12:59:00;;;;;;;4.53;1.70;;;14.80;91.20;;;;;;4935471;29;20511;-73
2022/10/09 13:01:26;;;;;;;3.50;1.63;;;14.80;91.20;;;;;;4935180;29;20495;-73
2022/10/09 13:03:56;;;;;;;1.70;1.50;;;14.80;91.10;;;;;;4935309;29;20435;-73
2022/10/09 13:06:31;;;;;;;3.57;1.63;;;14.80;91.10;;;;;;4935184;29;20449;-73
2022/10/09 13:09:03;;;;;;;2.03;1.43;;;14.80;91.00;;;;;;4903599;29;20977;-73
2022/10/09 13:11:39;;;;;;;1.80;1.30;;;14.80;90.90;;;;;;4936327;29;20499;-73
2022/10/09 13:14:21;;;;;;;2.70;1.50;;;14.80;90.90;;;;;;4935123;29;20415;-73
2022/10/09 13:16:47;;;;;;;3.53;2.00;;;14.90;90.90;;;;;;4934931;29;20479;-73